Flugplatz Heide-Büsum

Für EDXB sind keine METAR/TAF Berichte vorhanden.
Es werden die Flugwettermeldungen vom Flugplatz Hohn Airport in 44 km Entfernung angezeigt.

Bericht für ETNH

vom 30.09. um 22:20 UTC

Wind 4 kt aus 170°

Sichtweite 10 km oder mehr

Temperatur 10.0°C

Taupunkt 7.0°C

Luftfeuchtigkeit 82%

Luftdruck 1005 hPa

ETNH 302220Z AUTO 17004KT 9999 // ////// 10/07 Q1005 ///
Keine Prognose (TAF) verfügbar.
Impressum